sensor_id;sensor_type;location;lat;lon;timestamp;pressure;altitude;pressure_sealevel;temperature;humidity
18697;BME280;22617;43.690;27.956;2023-05-09T00:01:31;99446.00;;;10.56;86.96
18697;BME280;22617;43.690;27.956;2023-05-09T00:06:37;99446.06;;;10.64;86.95
18697;BME280;22617;43.690;27.956;2023-05-09T00:11:41;99435.59;;;10.58;86.83
18697;BME280;22617;43.690;27.956;2023-05-09T00:16:45;99419.94;;;10.48;86.30
18697;BME280;22617;43.690;27.956;2023-05-09T00:21:51;99426.06;;;10.61;86.79
18697;BME280;22617;43.690;27.956;2023-05-09T00:26:55;99434.72;;;10.48;87.08
18697;BME280;22617;43.690;27.956;2023-05-09T00:31:59;99437.22;;;10.25;87.58
18697;BME280;22617;43.690;27.956;2023-05-09T00:37:06;99438.19;;;10.50;88.88
18697;BME280;22617;43.690;27.956;2023-05-09T00:42:10;99429.47;;;10.42;88.57
18697;BME280;22617;43.690;27.956;2023-05-09T00:47:14;99422.53;;;10.44;88.35
18697;BME280;22617;43.690;27.956;2023-05-09T00:52:20;99424.28;;;10.56;88.72
18697;BME280;22617;43.690;27.956;2023-05-09T00:57:27;99423.41;;;10.43;88.05
18697;BME280;22617;43.690;27.956;2023-05-09T01:02:31;99418.22;;;10.54;88.71
18697;BME280;22617;43.690;27.956;2023-05-09T01:07:42;99421.66;;;10.51;88.55
18697;BME280;22617;43.690;27.956;2023-05-09T01:12:53;99423.38;;;10.37;88.63
18697;BME280;22617;43.690;27.956;2023-05-09T01:18:14;99431.19;;;10.37;88.73
18697;BME280;22617;43.690;27.956;2023-05-09T01:23:55;99433.84;;;10.47;88.64
18697;BME280;22617;43.690;27.956;2023-05-09T01:29:33;99432.00;;;10.19;88.68
18697;BME280;22617;43.690;27.956;2023-05-09T01:34:40;99428.50;;;10.17;88.48
18697;BME280;22617;43.690;27.956;2023-05-09T01:39:47;99432.00;;;10.22;88.87
18697;BME280;22617;43.690;27.956;2023-05-09T01:44:57;99440.63;;;10.15;88.53
18697;BME280;22617;43.690;27.956;2023-05-09T01:50:06;99442.41;;;10.19;89.09
18697;BME280;22617;43.690;27.956;2023-05-09T01:55:12;99443.22;;;10.11;89.32
18697;BME280;22617;43.690;27.956;2023-05-09T02:00:21;99435.44;;;10.18;88.69
18697;BME280;22617;43.690;27.956;2023-05-09T02:05:28;99433.63;;;10.08;89.30
18697;BME280;22617;43.690;27.956;2023-05-09T02:10:34;99436.31;;;10.22;89.16
18697;BME280;22617;43.690;27.956;2023-05-09T02:15:41;99438.06;;;10.23;88.74
18697;BME280;22617;43.690;27.956;2023-05-09T02:20:46;99441.47;;;10.10;88.33
18697;BME280;22617;43.690;27.956;2023-05-09T02:25:52;99431.84;;;10.02;89.32
18697;BME280;22617;43.690;27.956;2023-05-09T02:30:59;99437.09;;;10.04;89.17
18697;BME280;22617;43.690;27.956;2023-05-09T02:36:05;99444.84;;;9.93;89.73
18697;BME280;22617;43.690;27.956;2023-05-09T02:41:11;99442.19;;;9.81;90.91
18697;BME280;22617;43.690;27.956;2023-05-09T02:46:17;99442.34;;;10.07;90.75
18697;BME280;22617;43.690;27.956;2023-05-09T02:51:21;99435.34;;;10.03;89.66
18697;BME280;22617;43.690;27.956;2023-05-09T02:56:26;99444.88;;;10.02;89.33
18697;BME280;22617;43.690;27.956;2023-05-09T03:01:32;99451.06;;;10.18;89.23
18697;BME280;22617;43.690;27.956;2023-05-09T03:06:37;99454.56;;;10.20;88.61
18697;BME280;22617;43.690;27.956;2023-05-09T03:11:42;99460.47;;;9.98;88.23
18697;BME280;22617;43.690;27.956;2023-05-09T03:16:49;99458.78;;;10.04;88.91
18697;BME280;22617;43.690;27.956;2023-05-09T03:22:02;99465.69;;;9.98;89.04
18697;BME280;22617;43.690;27.956;2023-05-09T03:27:10;99464.00;;;10.01;89.62
18697;BME280;22617;43.690;27.956;2023-05-09T03:32:17;99472.72;;;10.13;88.74
18697;BME280;22617;43.690;27.956;2023-05-09T03:37:22;99475.34;;;10.11;89.25
18697;BME280;22617;43.690;27.956;2023-05-09T03:42:28;99483.09;;;10.05;88.70
18697;BME280;22617;43.690;27.956;2023-05-09T03:47:37;99490.22;;;10.26;89.29
18697;BME280;22617;43.690;27.956;2023-05-09T03:52:42;99493.66;;;10.25;88.98
18697;BME280;22617;43.690;27.956;2023-05-09T03:57:50;99499.78;;;10.30;88.34
18697;BME280;22617;43.690;27.956;2023-05-09T04:02:57;99504.06;;;10.20;87.97
18697;BME280;22617;43.690;27.956;2023-05-09T04:08:10;99504.16;;;10.35;88.00
18697;BME280;22617;43.690;27.956;2023-05-09T04:13:16;99505.03;;;10.39;87.59
18697;BME280;22617;43.690;27.956;2023-05-09T04:18:22;99503.38;;;10.58;87.93
18697;BME280;22617;43.690;27.956;2023-05-09T04:23:27;99518.13;;;10.60;88.25
18697;BME280;22617;43.690;27.956;2023-05-09T04:28:33;99513.88;;;10.85;88.19
18697;BME280;22617;43.690;27.956;2023-05-09T04:33:39;99516.44;;;10.67;87.39
18697;BME280;22617;43.690;27.956;2023-05-09T04:38:44;99511.22;;;10.67;87.84
18697;BME280;22617;43.690;27.956;2023-05-09T04:43:52;99520.72;;;10.51;87.42
18697;BME280;22617;43.690;27.956;2023-05-09T04:49:01;99531.16;;;10.56;87.27
18697;BME280;22617;43.690;27.956;2023-05-09T04:54:06;99536.44;;;10.68;87.56
18697;BME280;22617;43.690;27.956;2023-05-09T04:59:14;99535.56;;;10.70;86.81
18697;BME280;22617;43.690;27.956;2023-05-09T05:04:23;99534.66;;;10.61;86.98
18697;BME280;22617;43.690;27.956;2023-05-09T05:09:29;99529.53;;;10.80;86.33
18697;BME280;22617;43.690;27.956;2023-05-09T05:14:36;99535.59;;;10.81;85.75
18697;BME280;22617;43.690;27.956;2023-05-09T05:19:45;99538.22;;;10.84;86.22
18697;BME280;22617;43.690;27.956;2023-05-09T05:24:50;99546.06;;;10.82;86.45
18697;BME280;22617;43.690;27.956;2023-05-09T05:29:58;99553.06;;;11.05;85.63
18697;BME280;22617;43.690;27.956;2023-05-09T05:35:09;99543.50;;;11.05;85.70
18697;BME280;22617;43.690;27.956;2023-05-09T05:40:18;99552.28;;;11.25;85.28
18697;BME280;22617;43.690;27.956;2023-05-09T05:45:25;99554.00;;;11.29;85.00
18697;BME280;22617;43.690;27.956;2023-05-09T05:50:43;99553.97;;;11.19;85.10
18697;BME280;22617;43.690;27.956;2023-05-09T05:56:09;99552.31;;;11.41;84.47
18697;BME280;22617;43.690;27.956;2023-05-09T06:01:18;99551.44;;;11.60;84.53
18697;BME280;22617;43.690;27.956;2023-05-09T06:06:54;99553.19;;;11.71;84.02
18697;BME280;22617;43.690;27.956;2023-05-09T06:12:20;99557.56;;;11.91;84.04
18697;BME280;22617;43.690;27.956;2023-05-09T06:17:54;99558.41;;;12.05;83.36
18697;BME280;22617;43.690;27.956;2023-05-09T06:23:28;99554.94;;;11.91;82.15
18697;BME280;22617;43.690;27.956;2023-05-09T06:29:02;99554.09;;;11.98;81.58
18697;BME280;22617;43.690;27.956;2023-05-09T06:34:07;99549.72;;;12.00;81.52
18697;BME280;22617;43.690;27.956;2023-05-09T06:39:11;99550.59;;;12.17;81.75
18697;BME280;22617;43.690;27.956;2023-05-09T06:44:15;99553.94;;;12.66;82.37
18697;BME280;22617;43.690;27.956;2023-05-09T06:49:18;99551.16;;;13.13;81.01
18697;BME280;22617;43.690;27.956;2023-05-09T06:54:23;99551.97;;;13.23;78.87
18697;BME280;22617;43.690;27.956;2023-05-09T06:59:27;99547.63;;;13.16;78.15
18697;BME280;22617;43.690;27.956;2023-05-09T07:04:31;99553.59;;;13.42;78.91
18697;BME280;22617;43.690;27.956;2023-05-09T07:09:36;99549.13;;;13.54;77.60
18697;BME280;22617;43.690;27.956;2023-05-09T07:14:40;99554.63;;;13.12;76.79
18697;BME280;22617;43.690;27.956;2023-05-09T07:19:43;99551.22;;;12.95;78.06
18697;BME280;22617;43.690;27.956;2023-05-09T07:24:48;99543.38;;;12.89;79.04
18697;BME280;22617;43.690;27.956;2023-05-09T07:29:52;99539.84;;;12.99;78.98
18697;BME280;22617;43.690;27.956;2023-05-09T07:34:56;99538.91;;;13.06;78.94
18697;BME280;22617;43.690;27.956;2023-05-09T07:40:02;99545.59;;;13.62;78.10
18697;BME280;22617;43.690;27.956;2023-05-09T07:45:07;99532.47;;;14.56;76.02
18697;BME280;22617;43.690;27.956;2023-05-09T07:50:12;99533.59;;;14.32;73.70
18697;BME280;22617;43.690;27.956;2023-05-09T07:55:17;99534.53;;;14.25;74.08
18697;BME280;22617;43.690;27.956;2023-05-09T08:00:23;99539.38;;;13.76;74.08
18697;BME280;22617;43.690;27.956;2023-05-09T08:05:27;99549.25;;;13.33;76.08
18697;BME280;22617;43.690;27.956;2023-05-09T08:10:32;99546.75;;;13.10;75.95
18697;BME280;22617;43.690;27.956;2023-05-09T08:15:35;99551.22;;;12.87;76.37
18697;BME280;22617;43.690;27.956;2023-05-09T08:20:39;99555.50;;;13.06;77.66
18697;BME280;22617;43.690;27.956;2023-05-09T08:25:45;99553.69;;;13.24;77.26
18697;BME280;22617;43.690;27.956;2023-05-09T08:30:49;99558.13;;;13.06;78.09
18697;BME280;22617;43.690;27.956;2023-05-09T08:35:53;99548.63;;;12.84;77.88
18697;BME280;22617;43.690;27.956;2023-05-09T08:41:02;99556.56;;;12.64;77.28
18697;BME280;22617;43.690;27.956;2023-05-09T08:46:07;99556.56;;;12.57;78.17
18697;BME280;22617;43.690;27.956;2023-05-09T08:51:11;99557.47;;;12.56;78.80
18697;BME280;22617;43.690;27.956;2023-05-09T08:56:18;99559.19;;;12.54;79.83
18697;BME280;22617;43.690;27.956;2023-05-09T09:01:22;99562.63;;;12.71;79.18
18697;BME280;22617;43.690;27.956;2023-05-09T09:06:28;99564.41;;;12.61;79.58
18697;BME280;22617;43.690;27.956;2023-05-09T09:11:35;99558.31;;;12.65;78.72
18697;BME280;22617;43.690;27.956;2023-05-09T09:16:41;99561.66;;;12.98;77.61
18697;BME280;22617;43.690;27.956;2023-05-09T09:21:46;99559.94;;;12.94;77.42
18697;BME280;22617;43.690;27.956;2023-05-09T09:26:53;99554.81;;;12.62;77.25
18697;BME280;22617;43.690;27.956;2023-05-09T09:32:00;99552.22;;;12.56;78.13
18697;BME280;22617;43.690;27.956;2023-05-09T09:37:05;99554.91;;;12.35;78.96
18697;BME280;22617;43.690;27.956;2023-05-09T09:42:11;99555.78;;;12.37;79.70
18697;BME280;22617;43.690;27.956;2023-05-09T09:47:15;99552.25;;;12.44;80.44
18697;BME280;22617;43.690;27.956;2023-05-09T09:52:22;99562.69;;;12.48;79.81
18697;BME280;22617;43.690;27.956;2023-05-09T09:57:34;99553.88;;;12.78;78.59
18697;BME280;22617;43.690;27.956;2023-05-09T10:02:46;99560.72;;;13.16;77.40
18697;BME280;22617;43.690;27.956;2023-05-09T10:07:53;99565.13;;;13.03;76.08
18697;BME280;22617;43.690;27.956;2023-05-09T10:13:00;99573.16;;;12.56;76.75
18697;BME280;22617;43.690;27.956;2023-05-09T10:18:04;99579.31;;;11.90;78.80
18697;BME280;22617;43.690;27.956;2023-05-09T10:23:10;99582.78;;;11.75;81.38
18697;BME280;22617;43.690;27.956;2023-05-09T10:28:17;99583.63;;;11.57;82.84
18697;BME280;22617;43.690;27.956;2023-05-09T10:33:30;99582.75;;;11.52;84.22
18697;BME280;22617;43.690;27.956;2023-05-09T10:38:37;99588.00;;;11.63;84.91
18697;BME280;22617;43.690;27.956;2023-05-09T10:43:45;99580.22;;;11.87;85.72
18697;BME280;22617;43.690;27.956;2023-05-09T10:48:49;99578.47;;;11.97;84.29
18697;BME280;22617;43.690;27.956;2023-05-09T10:53:53;99578.41;;;12.44;83.93
18697;BME280;22617;43.690;27.956;2023-05-09T10:59:00;99577.16;;;13.40;83.89
18697;BME280;22617;43.690;27.956;2023-05-09T11:04:09;99573.53;;;13.60;81.56
18697;BME280;22617;43.690;27.956;2023-05-09T11:09:32;99574.66;;;13.19;77.85
18697;BME280;22617;43.690;27.956;2023-05-09T11:14:42;99569.47;;;13.08;76.75
18697;BME280;22617;43.690;27.956;2023-05-09T11:19:57;99577.34;;;13.02;76.05
18697;BME280;22617;43.690;27.956;2023-05-09T11:25:03;99577.03;;;13.59;76.10
18697;BME280;22617;43.690;27.956;2023-05-09T11:30:11;99569.66;;;14.06;73.83
18697;BME280;22617;43.690;27.956;2023-05-09T11:35:17;99573.28;;;13.93;72.79
18697;BME280;22617;43.690;27.956;2023-05-09T11:40:21;99565.16;;;14.22;71.10
18697;BME280;22617;43.690;27.956;2023-05-09T11:45:28;99552.75;;;14.39;71.15
18697;BME280;22617;43.690;27.956;2023-05-09T11:50:32;99544.81;;;16.27;68.82
18697;BME280;22617;43.690;27.956;2023-05-09T11:55:36;99545.34;;;16.46;66.61
18697;BME280;22617;43.690;27.956;2023-05-09T12:00:44;99546.09;;;16.05;66.82
18697;BME280;22617;43.690;27.956;2023-05-09T12:05:48;99541.63;;;14.94;65.30
18697;BME280;22617;43.690;27.956;2023-05-09T12:10:53;99546.34;;;14.67;68.50
18697;BME280;22617;43.690;27.956;2023-05-09T12:16:00;99542.41;;;14.24;67.44
18697;BME280;22617;43.690;27.956;2023-05-09T12:21:04;99548.69;;;14.06;68.61
18697;BME280;22617;43.690;27.956;2023-05-09T12:26:08;99547.97;;;13.90;68.62
18697;BME280;22617;43.690;27.956;2023-05-09T12:31:14;99533.19;;;13.83;67.99
18697;BME280;22617;43.690;27.956;2023-05-09T12:36:18;99542.06;;;13.66;67.08
18697;BME280;22617;43.690;27.956;2023-05-09T12:41:23;99529.59;;;13.95;67.43
18697;BME280;22617;43.690;27.956;2023-05-09T12:46:52;99533.97;;;13.93;67.06
18697;BME280;22617;43.690;27.956;2023-05-09T12:51:57;99532.25;;;13.87;67.43
18697;BME280;22617;43.690;27.956;2023-05-09T12:57:19;99537.78;;;13.54;66.12
18697;BME280;22617;43.690;27.956;2023-05-09T13:02:26;99525.50;;;15.21;64.07
18697;BME280;22617;43.690;27.956;2023-05-09T13:07:37;99538.84;;;14.32;64.49
18697;BME280;22617;43.690;27.956;2023-05-09T13:12:41;99535.97;;;13.67;64.91
18697;BME280;22617;43.690;27.956;2023-05-09T13:17:50;99534.56;;;14.22;64.30
18697;BME280;22617;43.690;27.956;2023-05-09T13:22:53;99536.31;;;14.22;64.29
18697;BME280;22617;43.690;27.956;2023-05-09T13:27:57;99532.69;;;14.38;63.33
18697;BME280;22617;43.690;27.956;2023-05-09T13:33:01;99525.69;;;14.35;64.42
18697;BME280;22617;43.690;27.956;2023-05-09T13:38:25;99527.75;;;15.45;62.80
18697;BME280;22617;43.690;27.956;2023-05-09T13:43:32;99527.19;;;14.61;61.37
18697;BME280;22617;43.690;27.956;2023-05-09T13:48:37;99528.63;;;14.83;60.38
18697;BME280;22617;43.690;27.956;2023-05-09T13:53:41;99534.47;;;14.30;62.41
18697;BME280;22617;43.690;27.956;2023-05-09T13:58:45;99542.09;;;15.24;61.38
18697;BME280;22617;43.690;27.956;2023-05-09T14:03:50;99542.44;;;14.22;61.14
18697;BME280;22617;43.690;27.956;2023-05-09T14:08:55;99541.75;;;14.04;62.13
18697;BME280;22617;43.690;27.956;2023-05-09T14:13:59;99530.25;;;14.95;61.46
18697;BME280;22617;43.690;27.956;2023-05-09T14:19:04;99531.09;;;14.97;59.80
18697;BME280;22617;43.690;27.956;2023-05-09T14:24:08;99532.09;;;14.09;59.18
18697;BME280;22617;43.690;27.956;2023-05-09T14:29:15;99520.13;;;14.67;59.57
18697;BME280;22617;43.690;27.956;2023-05-09T14:34:20;99513.28;;;15.20;58.99
18697;BME280;22617;43.690;27.956;2023-05-09T14:39:24;99525.59;;;14.48;58.08
18697;BME280;22617;43.690;27.956;2023-05-09T14:44:27;99520.19;;;14.58;57.34
18697;BME280;22617;43.690;27.956;2023-05-09T14:49:32;99521.16;;;14.51;56.70
18697;BME280;22617;43.690;27.956;2023-05-09T14:54:36;99521.75;;;14.76;57.03
18697;BME280;22617;43.690;27.956;2023-05-09T14:59:40;99517.50;;;14.67;57.62
18697;BME280;22617;43.690;27.956;2023-05-09T15:04:45;99516.16;;;14.27;57.67
18697;BME280;22617;43.690;27.956;2023-05-09T15:09:48;99514.50;;;14.17;58.01
18697;BME280;22617;43.690;27.956;2023-05-09T15:14:52;99518.97;;;14.09;57.64
18697;BME280;22617;43.690;27.956;2023-05-09T15:19:57;99524.22;;;14.07;58.68
18697;BME280;22617;43.690;27.956;2023-05-09T15:25:01;99517.97;;;14.20;58.83
18697;BME280;22617;43.690;27.956;2023-05-09T15:30:08;99523.34;;;14.08;58.51
18697;BME280;22617;43.690;27.956;2023-05-09T15:35:13;99533.19;;;13.82;58.98
18697;BME280;22617;43.690;27.956;2023-05-09T15:40:19;99525.41;;;13.74;58.59
18697;BME280;22617;43.690;27.956;2023-05-09T15:45:22;99521.13;;;13.64;58.79
18697;BME280;22617;43.690;27.956;2023-05-09T15:50:27;99519.50;;;13.46;58.62
18697;BME280;22617;43.690;27.956;2023-05-09T15:55:31;99527.47;;;13.30;58.27
18697;BME280;22617;43.690;27.956;2023-05-09T16:00:35;99523.16;;;13.20;58.47
18697;BME280;22617;43.690;27.956;2023-05-09T16:05:40;99524.06;;;13.09;57.74
18697;BME280;22617;43.690;27.956;2023-05-09T16:10:46;99518.03;;;12.97;59.48
18697;BME280;22617;43.690;27.956;2023-05-09T16:15:50;99516.31;;;12.97;60.23
18697;BME280;22617;43.690;27.956;2023-05-09T16:20:56;99515.44;;;12.92;59.61
18697;BME280;22617;43.690;27.956;2023-05-09T16:26:00;99507.63;;;12.86;60.18
18697;BME280;22617;43.690;27.956;2023-05-09T16:31:04;99519.00;;;12.78;61.05
18697;BME280;22617;43.690;27.956;2023-05-09T16:36:10;99512.97;;;12.63;61.02
18697;BME280;22617;43.690;27.956;2023-05-09T16:41:14;99530.41;;;12.57;61.79
18697;BME280;22617;43.690;27.956;2023-05-09T16:46:18;99529.59;;;12.43;61.62
18697;BME280;22617;43.690;27.956;2023-05-09T16:51:23;99532.25;;;12.24;62.39
18697;BME280;22617;43.690;27.956;2023-05-09T16:56:26;99539.28;;;12.07;62.89
18697;BME280;22617;43.690;27.956;2023-05-09T17:01:30;99546.25;;;11.87;63.85
18697;BME280;22617;43.690;27.956;2023-05-09T17:06:35;99544.47;;;11.71;64.17
18697;BME280;22617;43.690;27.956;2023-05-09T17:11:39;99551.44;;;11.61;64.66
18697;BME280;22617;43.690;27.956;2023-05-09T17:16:43;99549.69;;;11.57;65.06
18697;BME280;22617;43.690;27.956;2023-05-09T17:21:48;99555.75;;;11.43;65.22
18697;BME280;22617;43.690;27.956;2023-05-09T17:26:55;99553.97;;;11.19;65.83
18697;BME280;22617;43.690;27.956;2023-05-09T17:31:58;99553.13;;;11.12;66.20
18697;BME280;22617;43.690;27.956;2023-05-09T17:37:05;99552.19;;;10.98;67.25
18697;BME280;22617;43.690;27.956;2023-05-09T17:42:10;99558.25;;;10.94;67.63
18697;BME280;22617;43.690;27.956;2023-05-09T17:47:13;99563.47;;;10.94;68.13
18697;BME280;22617;43.690;27.956;2023-05-09T17:52:19;99568.72;;;11.00;68.72
18697;BME280;22617;43.690;27.956;2023-05-09T17:57:23;99575.59;;;10.81;69.54
18697;BME280;22617;43.690;27.956;2023-05-09T18:02:28;99586.03;;;10.84;69.77
18697;BME280;22617;43.690;27.956;2023-05-09T22:34:48;99514.91;;;8.74;79.27
18697;BME280;22617;43.690;27.956;2023-05-09T22:39:52;99514.97;;;8.79;78.63
18697;BME280;22617;43.690;27.956;2023-05-09T22:44:57;99517.69;;;8.89;78.13
18697;BME280;22617;43.690;27.956;2023-05-09T22:50:03;99510.44;;;8.61;77.22
18697;BME280;22617;43.690;27.956;2023-05-09T22:55:10;99500.13;;;8.68;77.79
18697;BME280;22617;43.690;27.956;2023-05-09T23:00:15;99495.75;;;8.64;77.67
18697;BME280;22617;43.690;27.956;2023-05-09T23:05:21;99494.09;;;8.05;76.69
18697;BME280;22617;43.690;27.956;2023-05-09T23:10:26;99496.69;;;8.06;77.64
18697;BME280;22617;43.690;27.956;2023-05-09T23:15:31;99488.03;;;8.06;77.67
18697;BME280;22617;43.690;27.956;2023-05-09T23:20:37;99491.38;;;7.96;77.60
18697;BME280;22617;43.690;27.956;2023-05-09T23:25:41;99488.78;;;7.96;77.06
18697;BME280;22617;43.690;27.956;2023-05-09T23:30:45;99481.75;;;7.88;77.16
18697;BME280;22617;43.690;27.956;2023-05-09T23:35:52;99481.72;;;7.85;77.42
18697;BME280;22617;43.690;27.956;2023-05-09T23:40:56;99475.59;;;7.83;76.73
18697;BME280;22617;43.690;27.956;2023-05-09T23:46:01;99473.91;;;7.87;76.68
18697;BME280;22617;43.690;27.956;2023-05-09T23:51:07;99464.94;;;7.64;76.77
18697;BME280;22617;43.690;27.956;2023-05-09T23:56:12;99459.94;;;7.77;77.35
